Time;durP1;ratioP1;P1;durP2;ratioP2;P2;SDS_P1;SDS_P2;PMS_P1;PMS_P2;Temp;Humidity;BMP_temperature;BMP_pressure;BME280_temperature;BME280_humidity;BME280_pressure;Samples;Min_cycle;Max_cycle;Signal;HPM_P1;HPM_P2
2022/07/28 00:01:09;;;;;;;4.50;1.77;;;;;;;;;;6130195;23;20093;-85
2022/07/28 00:03:36;;;;;;;2.55;1.50;;;;;;;;;;6159085;23;20030;-85
2022/07/28 00:06:07;;;;;;;6.45;1.70;;;;;;;;;;6132959;23;20025;-85
2022/07/28 00:08:35;;;;;;;3.88;1.70;;;;;;;;;;6133695;23;20455;-85
2022/07/28 00:11:05;;;;;;;3.58;1.73;;;;;;;;;;6160408;23;20026;-86
2022/07/28 00:13:35;;;;;;;4.75;1.70;;;;;;;;;;6160147;23;20077;-86
2022/07/28 00:16:09;;;;;;;6.28;1.70;;;;;;;;;;6134949;23;20028;-85
2022/07/28 00:18:37;;;;;;;3.50;1.45;;;;;;;;;;6133796;23;20026;-85
2022/07/28 00:21:07;;;;;;;4.15;1.45;;;;;;;;;;6134780;23;20018;-86
2022/07/28 00:23:35;;;;;;;2.97;1.52;;;;;;;;;;6133157;23;20755;-85
2022/07/28 00:26:08;;;;;;;4.45;1.77;;;;;;;;;;6133607;23;20085;-86
2022/07/28 00:28:36;;;;;;;8.13;1.60;;;;;;;;;;6133845;23;20018;-86
2022/07/28 00:31:05;;;;;;;2.13;1.20;;;;;;;;;;6134064;23;20029;-85
2022/07/28 00:33:43;;;;;;;4.47;1.70;;;;;;;;;;6134449;23;20026;-85
2022/07/28 00:36:14;;;;;;;6.78;1.90;;;;;;;;;;6135051;23;20018;-85
2022/07/28 00:38:44;;;;;;;5.60;2.05;;;;;;;;;;6133524;23;20018;-85
2022/07/28 00:41:22;;;;;;;6.93;1.52;;;;;;;;;;6135044;23;20440;-86
2022/07/28 00:43:54;;;;;;;4.60;1.67;;;;;;;;;;6134189;23;20037;-85
2022/07/28 00:46:26;;;;;;;2.50;1.30;;;;;;;;;;6134585;23;20026;-85
2022/07/28 00:48:57;;;;;;;7.43;1.80;;;;;;;;;;6133453;23;20077;-86
2022/07/28 00:51:56;;;;;;;;;;;;;;;;;;;;;
2022/07/28 00:54:36;;;;;;;3.85;1.75;;;;;;;;;;6159940;23;20030;-85
2022/07/28 00:57:06;;;;;;;5.68;2.08;;;;;;;;;;6133070;23;20026;-85
2022/07/28 00:59:37;;;;;;;6.75;1.60;;;;;;;;;;6134219;23;20022;-85
2022/07/28 01:02:07;;;;;;;5.25;1.58;;;;;;;;;;6133126;23;20057;-85
2022/07/28 01:04:48;;;;;;;5.63;1.57;;;;;;;;;;6134710;23;20026;-86
2022/07/28 01:07:29;;;;;;;5.57;1.80;;;;;;;;;;6133935;23;20929;-85
2022/07/28 01:10:17;;;;;;;6.03;1.80;;;;;;;;;;6133600;23;20022;-86
2022/07/28 01:12:48;;;;;;;3.72;1.67;;;;;;;;;;6133530;23;20014;-85
2022/07/28 01:15:27;;;;;;;6.22;2.10;;;;;;;;;;6132442;23;20134;-85
2022/07/28 01:18:15;;;;;;;7.13;2.00;;;;;;;;;;6131015;23;20030;-85
2022/07/28 01:20:48;;;;;;;6.15;1.60;;;;;;;;;;6131339;23;20105;-86
2022/07/28 01:23:33;;;;;;;5.90;2.10;;;;;;;;;;6130990;23;20022;-86
2022/07/28 01:26:19;;;;;;;3.60;1.60;;;;;;;;;;6131799;23;20230;-85
2022/07/28 01:28:56;;;;;;;4.45;1.65;;;;;;;;;;6131608;23;20053;-85
2022/07/28 01:31:33;;;;;;;4.93;1.65;;;;;;;;;;6132136;23;20018;-85
2022/07/28 01:34:06;;;;;;;5.20;1.92;;;;;;;;;;6131117;23;20093;-85
2022/07/28 01:36:41;;;;;;;3.13;1.50;;;;;;;;;;6131581;23;20045;-85
2022/07/28 01:39:09;;;;;;;6.22;1.80;;;;;;;;;;6131267;23;20097;-85
2022/07/28 01:41:39;;;;;;;6.50;1.67;;;;;;;;;;6131982;23;20022;-85
2022/07/28 01:44:11;;;;;;;8.35;1.90;;;;;;;;;;6130415;23;20432;-85
2022/07/28 01:46:55;;;;;;;;;;;;;;;;;;;;;
2022/07/28 01:49:25;;;;;;;4.43;1.75;;;;;;;;;;6157784;23;20022;-85
2022/07/28 01:51:58;;;;;;;4.93;1.70;;;;;;;;;;6157668;23;20021;-85
2022/07/28 01:54:27;;;;;;;4.95;1.70;;;;;;;;;;6131441;23;20018;-85
2022/07/28 01:56:58;;;;;;;7.18;2.00;;;;;;;;;;6131515;23;20029;-85
2022/07/28 01:59:27;;;;;;;6.35;1.88;;;;;;;;;;6131992;23;20100;-85
2022/07/28 02:02:02;;;;;;;6.22;2.03;;;;;;;;;;6131788;23;20033;-86
2022/07/28 02:04:36;;;;;;;5.82;2.00;;;;;;;;;;6131965;23;20104;-85
2022/07/28 02:07:08;;;;;;;5.10;1.90;;;;;;;;;;6130986;23;20073;-85
2022/07/28 02:09:39;;;;;;;5.30;1.90;;;;;;;;;;6130835;23;20018;-85
2022/07/28 02:12:08;;;;;;;9.30;1.85;;;;;;;;;;6130437;23;20028;-85
2022/07/28 02:14:36;;;;;;;3.25;1.80;;;;;;;;;;6157422;23;20017;-85
2022/07/28 02:17:09;;;;;;;6.20;1.75;;;;;;;;;;6131665;23;20077;-85
2022/07/28 02:19:37;;;;;;;9.23;1.90;;;;;;;;;;6157009;23;20060;-85
2022/07/28 02:22:07;;;;;;;6.95;2.13;;;;;;;;;;6131660;23;20098;-85
2022/07/28 02:24:35;;;;;;;4.05;1.80;;;;;;;;;;6156951;23;20098;-85
2022/07/28 02:27:23;;;;;;;4.68;1.98;;;;;;;;;;6132980;23;20037;-85
2022/07/28 02:30:01;;;;;;;4.05;2.00;;;;;;;;;;6132254;23;20460;-85
2022/07/28 02:32:55;;;;;;;4.30;1.98;;;;;;;;;;6131781;23;20105;-85
2022/07/28 02:35:32;;;;;;;4.60;1.83;;;;;;;;;;6122771;23;20025;-85
2022/07/28 02:38:09;;;;;;;5.82;2.20;;;;;;;;;;6132290;23;20113;-85
2022/07/28 02:40:40;;;;;;;5.00;2.05;;;;;;;;;;6131843;23;20060;-85
2022/07/28 02:43:16;;;;;;;3.80;2.05;;;;;;;;;;6131565;23;20014;-85
2022/07/28 02:45:47;;;;;;;5.55;1.88;;;;;;;;;;6131566;23;20033;-85
2022/07/28 02:48:24;;;;;;;3.88;1.83;;;;;;;;;;6133012;23;20026;-85
2022/07/28 02:50:57;;;;;;;4.15;1.92;;;;;;;;;;6131445;23;20086;-86
2022/07/28 02:53:25;;;;;;;5.60;1.80;;;;;;;;;;6131617;23;20107;-85
2022/07/28 02:55:55;;;;;;;6.35;2.13;;;;;;;;;;6132001;23;20093;-85
2022/07/28 02:58:26;;;;;;;5.85;1.98;;;;;;;;;;6132082;23;20026;-85
2022/07/28 03:00:54;;;;;;;5.35;2.10;;;;;;;;;;6130980;23;20098;-85
2022/07/28 03:03:48;;;;;;;5.75;2.33;;;;;;;;;;6110628;23;20032;-85
2022/07/28 03:06:22;;;;;;;7.07;2.55;;;;;;;;;;6131947;23;20113;-85
2022/07/28 03:08:57;;;;;;;7.20;2.30;;;;;;;;;;6132538;23;20129;-85
2022/07/28 03:11:27;;;;;;;5.25;2.33;;;;;;;;;;6131039;23;20029;-85
2022/07/28 03:13:57;;;;;;;3.75;2.10;;;;;;;;;;6131565;23;20018;-85
2022/07/28 03:16:28;;;;;;;5.70;2.58;;;;;;;;;;6131412;23;20018;-85
2022/07/28 03:18:56;;;;;;;5.85;2.10;;;;;;;;;;6130479;23;20097;-85
2022/07/28 03:21:26;;;;;;;7.18;2.08;;;;;;;;;;6130941;23;20929;-85
2022/07/28 03:23:59;;;;;;;6.37;1.93;;;;;;;;;;6131943;23;20675;-85
2022/07/28 03:26:48;;;;;;;5.32;2.03;;;;;;;;;;6131495;23;20055;-85
2022/07/28 03:29:16;;;;;;;4.07;2.20;;;;;;;;;;6131848;23;20105;-85
2022/07/28 03:31:46;;;;;;;6.65;2.10;;;;;;;;;;6131335;23;20045;-85
2022/07/28 03:34:14;;;;;;;6.30;2.42;;;;;;;;;;6130789;23;20025;-85
2022/07/28 03:36:58;;;;;;;2.55;2.00;;;;;;;;;;6133347;23;20022;-85
2022/07/28 03:39:42;;;;;;;8.95;2.15;;;;;;;;;;6133024;23;20030;-85
2022/07/28 03:42:12;;;;;;;11.68;3.00;;;;;;;;;;6131120;23;20029;-85
2022/07/28 03:44:47;;;;;;;7.80;2.58;;;;;;;;;;6132051;23;20022;-85
2022/07/28 03:47:15;;;;;;;5.43;2.67;;;;;;;;;;6131016;23;20474;-85
2022/07/28 03:49:47;;;;;;;5.97;2.53;;;;;;;;;;6130500;23;20471;-85
2022/07/28 03:52:22;;;;;;;5.53;2.38;;;;;;;;;;6130565;23;21099;-85
2022/07/28 03:54:54;;;;;;;7.05;2.63;;;;;;;;;;6131919;23;20029;-85
2022/07/28 03:57:31;;;;;;;9.18;2.22;;;;;;;;;;6132035;23;20472;-85
2022/07/28 04:00:00;;;;;;;5.97;2.42;;;;;;;;;;6131248;23;20053;-85
2022/07/28 04:02:43;;;;;;;9.15;2.53;;;;;;;;;;6156755;23;20029;-85
2022/07/28 04:05:15;;;;;;;7.03;2.33;;;;;;;;;;6131902;23;20018;-85
2022/07/28 04:07:45;;;;;;;6.43;2.40;;;;;;;;;;6130199;23;20026;-85
2022/07/28 04:10:14;;;;;;;4.53;2.63;;;;;;;;;;6156916;23;20022;-85
2022/07/28 04:12:46;;;;;;;3.83;1.85;;;;;;;;;;6131498;23;20125;-84
2022/07/28 04:15:16;;;;;;;10.77;2.35;;;;;;;;;;6130960;23;20026;-85
2022/07/28 04:17:53;;;;;;;5.70;2.42;;;;;;;;;;6130472;23;20025;-85
2022/07/28 04:20:22;;;;;;;7.63;2.15;;;;;;;;;;6130529;23;20511;-85
2022/07/28 04:22:56;;;;;;;8.50;2.53;;;;;;;;;;6130249;23;20014;-85
2022/07/28 04:25:25;;;;;;;10.15;2.25;;;;;;;;;;6156820;23;20085;-85
2022/07/28 04:27:55;;;;;;;6.82;2.20;;;;;;;;;;6130769;23;20041;-85
2022/07/28 04:30:26;;;;;;;8.88;2.65;;;;;;;;;;6131734;23;20077;-85
2022/07/28 04:32:55;;;;;;;13.90;2.38;;;;;;;;;;6130970;23;20022;-85
2022/07/28 04:35:23;;;;;;;8.27;2.50;;;;;;;;;;6131069;23;20014;-85
2022/07/28 04:38:01;;;;;;;5.60;2.33;;;;;;;;;;6133105;23;20078;-84
2022/07/28 04:40:30;;;;;;;4.75;2.15;;;;;;;;;;6157770;23;20022;-85
2022/07/28 04:43:00;;;;;;;5.93;2.00;;;;;;;;;;6130495;23;20097;-85
2022/07/28 04:45:27;;;;;;;7.78;2.30;;;;;;;;;;6132737;23;20014;-85
2022/07/28 04:47:56;;;;;;;8.63;3.75;;;;;;;;;;6158267;23;20520;-85
2022/07/28 04:50:23;;;;;;;5.50;2.35;;;;;;;;;;6132222;23;20021;-85
2022/07/28 04:52:53;;;;;;;6.28;2.40;;;;;;;;;;6158108;23;20022;-85
2022/07/28 04:55:26;;;;;;;8.70;2.78;;;;;;;;;;6132096;23;20644;-85
2022/07/28 04:57:59;;;;;;;6.60;2.45;;;;;;;;;;6159181;23;20018;-85
2022/07/28 05:00:38;;;;;;;7.32;2.45;;;;;;;;;;6134411;23;20030;-85
2022/07/28 05:03:06;;;;;;;5.63;2.30;;;;;;;;;;6131690;23;20026;-85
2022/07/28 05:05:35;;;;;;;6.28;2.20;;;;;;;;;;6133030;23;20739;-85
2022/07/28 05:08:05;;;;;;;5.15;2.38;;;;;;;;;;6131285;23;20061;-85
2022/07/28 05:10:33;;;;;;;7.15;2.47;;;;;;;;;;6132662;23;20026;-85
2022/07/28 05:13:15;;;;;;;8.07;2.25;;;;;;;;;;6134167;23;20045;-85
2022/07/28 05:15:47;;;;;;;7.22;2.50;;;;;;;;;;6132693;23;20601;-85
2022/07/28 05:18:16;;;;;;;7.35;2.42;;;;;;;;;;6125470;23;20045;-84
2022/07/28 05:20:46;;;;;;;7.82;2.53;;;;;;;;;;6013390;23;20031;-85
2022/07/28 05:23:20;;;;;;;9.70;2.30;;;;;;;;;;6013584;23;20363;-85
2022/07/28 05:25:52;;;;;;;7.43;2.75;;;;;;;;;;6014811;23;20026;-85
2022/07/28 05:28:22;;;;;;;9.93;2.42;;;;;;;;;;6014776;23;20928;-85
2022/07/28 05:30:49;;;;;;;9.15;2.53;;;;;;;;;;6014472;23;20245;-85
2022/07/28 05:33:18;;;;;;;4.07;2.08;;;;;;;;;;6014718;23;20020;-85
2022/07/28 05:35:58;;;;;;;6.60;2.40;;;;;;;;;;6015783;23;20030;-85
2022/07/28 05:38:26;;;;;;;8.23;2.55;;;;;;;;;;6014226;23;20020;-85
2022/07/28 05:41:01;;;;;;;10.05;2.65;;;;;;;;;;6109036;23;20033;-85
2022/07/28 05:43:38;;;;;;;5.93;2.22;;;;;;;;;;6132076;23;20022;-85
2022/07/28 05:46:14;;;;;;;6.13;2.15;;;;;;;;;;6132307;23;20021;-85
2022/07/28 05:48:44;;;;;;;8.25;2.25;;;;;;;;;;6132682;23;20021;-84
2022/07/28 05:51:12;;;;;;;7.45;2.63;;;;;;;;;;6132118;23;20029;-83
2022/07/28 05:53:54;;;;;;;10.52;2.47;;;;;;;;;;6130488;23;20014;-84
2022/07/28 05:56:32;;;;;;;6.28;1.90;;;;;;;;;;6132111;23;20498;-84
2022/07/28 05:59:01;;;;;;;5.78;2.05;;;;;;;;;;6131149;23;20837;-85
2022/07/28 06:01:35;;;;;;;13.75;2.38;;;;;;;;;;6132521;23;20037;-85
2022/07/28 06:04:06;;;;;;;4.55;1.92;;;;;;;;;;6131421;23;20396;-85
2022/07/28 06:06:56;;;;;;;7.85;2.10;;;;;;;;;;6134309;23;20042;-84
2022/07/28 06:09:30;;;;;;;5.18;2.13;;;;;;;;;;6131403;23;20025;-85
2022/07/28 06:12:01;;;;;;;6.95;1.77;;;;;;;;;;6131694;23;20104;-85
2022/07/28 06:15:28;;;;;;;;;;;;;;;;;;;;;
2022/07/28 06:17:56;;;;;;;5.43;1.83;;;;;;;;;;6066298;23;20019;-85
2022/07/28 06:20:24;;;;;;;6.10;1.90;;;;;;;;;;6042923;23;20015;-84
2022/07/28 06:22:57;;;;;;;5.10;2.15;;;;;;;;;;6043394;23;20118;-85
2022/07/28 06:25:33;;;;;;;10.90;2.08;;;;;;;;;;6041768;23;20481;-84
2022/07/28 06:28:31;;;;;;;8.02;1.52;;;;;;;;;;6017385;23;20047;-85
2022/07/28 06:31:44;;;;;;;5.55;1.60;;;;;;;;;;6029757;23;20055;-85
2022/07/28 06:34:17;;;;;;;9.05;2.00;;;;;;;;;;6037104;23;20585;-85
2022/07/28 06:37:01;;;;;;;5.57;1.73;;;;;;;;;;5980257;23;20028;-85
2022/07/28 06:39:32;;;;;;;4.80;1.52;;;;;;;;;;5979432;23;20017;-85
2022/07/28 06:42:02;;;;;;;5.53;1.55;;;;;;;;;;5979567;23;20100;-85
2022/07/28 06:44:29;;;;;;;8.27;1.52;;;;;;;;;;5979883;23;20028;-84
2022/07/28 06:47:17;;;;;;;8.80;1.80;;;;;;;;;;5955033;23;20080;-85
2022/07/28 06:49:45;;;;;;;4.03;1.42;;;;;;;;;;5950517;24;20017;-84
2022/07/28 06:52:16;;;;;;;3.33;1.50;;;;;;;;;;5950437;24;20021;-85
2022/07/28 06:54:49;;;;;;;3.33;1.40;;;;;;;;;;6000141;23;20008;-85
2022/07/28 06:57:30;;;;;;;5.78;1.50;;;;;;;;;;6016356;23;20024;-89
2022/07/28 07:00:06;;;;;;;4.28;1.60;;;;;;;;;;6038933;23;20083;-85
2022/07/28 07:02:42;;;;;;;4.90;1.23;;;;;;;;;;6012057;23;20027;-84
2022/07/28 07:05:15;;;;;;;4.10;1.38;;;;;;;;;;6014766;23;20020;-83
2022/07/28 07:07:58;;;;;;;7.68;1.38;;;;;;;;;;6012310;23;20031;-85
2022/07/28 07:10:31;;;;;;;4.13;1.67;;;;;;;;;;6010881;23;20099;-85
2022/07/28 07:13:01;;;;;;;5.40;1.00;;;;;;;;;;6011283;23;20027;-84
2022/07/28 07:15:32;;;;;;;5.05;1.33;;;;;;;;;;6125678;23;20841;-84
2022/07/28 07:18:01;;;;;;;4.55;1.02;;;;;;;;;;6128497;23;20018;-85
2022/07/28 07:20:31;;;;;;;5.88;1.20;;;;;;;;;;6128642;23;20025;-84
2022/07/28 07:23:13;;;;;;;3.33;1.17;;;;;;;;;;6103228;23;20025;-85
2022/07/28 07:25:46;;;;;;;6.18;1.17;;;;;;;;;;6131158;23;20029;-85
2022/07/28 07:28:23;;;;;;;4.97;1.25;;;;;;;;;;6131312;23;20122;-85
2022/07/28 07:31:07;;;;;;;4.68;1.15;;;;;;;;;;6131846;23;20515;-86
2022/07/28 07:34:11;;;;;;;6.55;1.05;;;;;;;;;;6132440;23;20018;-85
2022/07/28 07:36:46;;;;;;;6.15;0.90;;;;;;;;;;6157666;23;20025;-86
2022/07/28 07:39:16;;;;;;;4.60;1.13;;;;;;;;;;6132041;23;20018;-85
2022/07/28 07:41:48;;;;;;;2.70;1.02;;;;;;;;;;6132725;23;20028;-86
2022/07/28 07:44:20;;;;;;;3.13;1.10;;;;;;;;;;6133428;23;20021;-84
2022/07/28 07:46:58;;;;;;;3.22;1.00;;;;;;;;;;6131634;23;20022;-84
2022/07/28 07:49:33;;;;;;;6.78;1.15;;;;;;;;;;6134326;23;20029;-84
2022/07/28 07:52:19;;;;;;;1.95;0.88;;;;;;;;;;6134432;23;20478;-85
2022/07/28 07:54:52;;;;;;;6.68;1.05;;;;;;;;;;6132500;23;20093;-85
2022/07/28 07:57:30;;;;;;;4.55;1.05;;;;;;;;;;6132760;23;20113;-85
2022/07/28 07:59:57;;;;;;;4.07;1.15;;;;;;;;;;6131577;23;20052;-85
2022/07/28 08:02:27;;;;;;;4.85;1.13;;;;;;;;;;6131558;23;20050;-85
2022/07/28 08:05:12;;;;;;;3.58;1.00;;;;;;;;;;6133577;23;20451;-85
2022/07/28 08:07:41;;;;;;;4.45;1.10;;;;;;;;;;6129556;23;20038;-84
2022/07/28 08:10:09;;;;;;;2.45;0.90;;;;;;;;;;6130529;23;20028;-86
2022/07/28 08:12:48;;;;;;;5.85;1.00;;;;;;;;;;6131750;23;20029;-86
2022/07/28 08:15:32;;;;;;;4.47;1.10;;;;;;;;;;6133828;23;20030;-87
2022/07/28 08:18:20;;;;;;;5.93;1.52;;;;;;;;;;6133451;23;20034;-86
2022/07/28 08:20:55;;;;;;;2.05;1.08;;;;;;;;;;6131702;23;20287;-86
2022/07/28 08:23:26;;;;;;;0.60;0.60;;;;;;;;;;6129822;23;20018;-86
2022/07/28 08:26:01;;;;;;;4.00;1.00;;;;;;;;;;6130789;23;20029;-86
2022/07/28 08:28:32;;;;;;;2.67;0.63;;;;;;;;;;6155558;23;20472;-86
2022/07/28 08:31:01;;;;;;;2.22;1.00;;;;;;;;;;6130009;23;20029;-86
2022/07/28 08:33:30;;;;;;;4.25;0.90;;;;;;;;;;6130083;23;20073;-86
2022/07/28 08:36:00;;;;;;;5.78;1.00;;;;;;;;;;6130801;23;20564;-86
2022/07/28 08:38:34;;;;;;;2.22;0.82;;;;;;;;;;6132235;23;20030;-86
2022/07/28 08:41:08;;;;;;;3.08;1.00;;;;;;;;;;6157289;23;20025;-86
2022/07/28 08:43:37;;;;;;;1.77;0.73;;;;;;;;;;6130885;23;20022;-86
2022/07/28 08:46:10;;;;;;;1.57;0.67;;;;;;;;;;6131224;23;20081;-86
2022/07/28 08:48:54;;;;;;;1.55;0.90;;;;;;;;;;6132318;23;20052;-86
2022/07/28 08:51:26;;;;;;;3.70;0.80;;;;;;;;;;6132293;23;20776;-86
2022/07/28 08:53:58;;;;;;;1.98;0.80;;;;;;;;;;6131221;23;20539;-86
2022/07/28 08:56:36;;;;;;;3.10;0.80;;;;;;;;;;6133830;23;20021;-85
2022/07/28 08:59:14;;;;;;;3.33;0.95;;;;;;;;;;6133695;23;20030;-86
2022/07/28 09:01:45;;;;;;;5.22;1.10;;;;;;;;;;6135294;23;20020;-86
2022/07/28 09:04:24;;;;;;;2.13;0.88;;;;;;;;;;6156106;23;20034;-86
2022/07/28 09:06:57;;;;;;;3.50;0.97;;;;;;;;;;6131400;23;20325;-86
2022/07/28 09:09:36;;;;;;;3.33;1.20;;;;;;;;;;6130718;23;20711;-85
2022/07/28 09:12:08;;;;;;;3.05;0.88;;;;;;;;;;6131716;23;20548;-86
2022/07/28 09:14:48;;;;;;;5.40;0.93;;;;;;;;;;6131235;23;20077;-87
2022/07/28 09:17:15;;;;;;;2.03;0.80;;;;;;;;;;6131348;23;20018;-86
2022/07/28 09:19:45;;;;;;;2.53;0.80;;;;;;;;;;6157669;23;20026;-86
2022/07/28 09:22:17;;;;;;;2.67;0.85;;;;;;;;;;6155857;23;20021;-86
2022/07/28 09:24:46;;;;;;;2.83;1.00;;;;;;;;;;6129869;23;20018;-85
2022/07/28 09:27:14;;;;;;;3.05;1.10;;;;;;;;;;6128538;23;20074;-86
2022/07/28 09:29:48;;;;;;;0.93;0.80;;;;;;;;;;6129968;23;20531;-86
2022/07/28 09:32:16;;;;;;;1.85;0.70;;;;;;;;;;6129839;23;20101;-86
2022/07/28 09:34:49;;;;;;;1.70;0.98;;;;;;;;;;6129586;23;20104;-85
2022/07/28 09:37:17;;;;;;;;;;;;;;;;;;6131376;23;20065;-86
2022/07/28 09:39:59;;;;;;;1.20;0.73;;;;;;;;;;6132485;23;43150;-86
2022/07/28 09:42:45;;;;;;;2.30;0.98;;;;;;;;;;6131942;23;20017;-86
2022/07/28 09:45:17;;;;;;;2.08;0.93;;;;;;;;;;6132518;23;20018;-86
2022/07/28 09:48:07;;;;;;;1.63;0.80;;;;;;;;;;6132634;23;20018;-85
2022/07/28 09:50:35;;;;;;;5.60;1.05;;;;;;;;;;6157677;23;20026;-85
2022/07/28 09:53:20;;;;;;;2.08;0.85;;;;;;;;;;6130081;23;20100;-86
2022/07/28 09:56:06;;;;;;;2.05;0.80;;;;;;;;;;6130618;23;20026;-85
2022/07/28 09:58:33;;;;;;;7.90;1.05;;;;;;;;;;6156757;23;20076;-86
2022/07/28 10:01:09;;;;;;;1.27;0.90;;;;;;;;;;6131492;23;20025;-86
2022/07/28 10:03:54;;;;;;;1.42;0.93;;;;;;;;;;6133797;23;20022;-85
2022/07/28 10:06:29;;;;;;;1.30;0.70;;;;;;;;;;6156334;23;20053;-85
2022/07/28 10:09:02;;;;;;;1.63;0.90;;;;;;;;;;6131148;23;20871;-85
2022/07/28 10:11:32;;;;;;;2.60;0.90;;;;;;;;;;6154925;23;20470;-86
2022/07/28 10:14:07;;;;;;;2.80;0.98;;;;;;;;;;6132109;23;20018;-85
2022/07/28 10:16:36;;;;;;;2.60;0.90;;;;;;;;;;6129882;23;20054;-85
2022/07/28 10:19:07;;;;;;;0.98;0.80;;;;;;;;;;6130285;23;20537;-86
2022/07/28 10:21:43;;;;;;;2.97;1.20;;;;;;;;;;6131387;23;20022;-85
2022/07/28 10:24:14;;;;;;;1.17;0.90;;;;;;;;;;6131427;23;20338;-85
2022/07/28 10:26:46;;;;;;;3.75;1.10;;;;;;;;;;6130607;23;20106;-86
2022/07/28 10:29:16;;;;;;;1.83;0.80;;;;;;;;;;6129863;23;20068;-85
2022/07/28 10:31:45;;;;;;;2.88;1.00;;;;;;;;;;6156405;23;20137;-85
2022/07/28 10:34:43;;;;;;;2.15;0.93;;;;;;;;;;6156819;23;20499;-85
2022/07/28 10:37:16;;;;;;;5.70;1.23;;;;;;;;;;6116121;23;20045;-85
2022/07/28 10:40:13;;;;;;;2.60;0.93;;;;;;;;;;6130768;23;20044;-85
2022/07/28 10:42:45;;;;;;;2.65;0.93;;;;;;;;;;6129449;23;20376;-85
2022/07/28 10:45:20;;;;;;;1.95;0.98;;;;;;;;;;6129928;23;20123;-86
2022/07/28 10:48:20;;;;;;;3.30;1.02;;;;;;;;;;6135809;23;20054;-86
2022/07/28 10:50:52;;;;;;;2.63;0.70;;;;;;;;;;6131023;23;20030;-86
2022/07/28 10:53:52;;;;;;;1.23;0.77;;;;;;;;;;6130334;23;20018;-86
2022/07/28 10:56:48;;;;;;;4.43;1.00;;;;;;;;;;6121969;23;20069;-86
2022/07/28 10:59:37;;;;;;;1.35;0.88;;;;;;;;;;6102240;23;20097;-86
2022/07/28 11:02:29;;;;;;;2.60;1.00;;;;;;;;;;6131017;23;20462;-86
2022/07/28 11:05:00;;;;;;;2.03;0.95;;;;;;;;;;6131236;23;20034;-85
2022/07/28 11:07:38;;;;;;;1.17;0.70;;;;;;;;;;6129827;23;20018;-86
2022/07/28 11:10:20;;;;;;;1.02;0.80;;;;;;;;;;6122932;23;20033;-86
2022/07/28 11:12:48;;;;;;;3.28;0.95;;;;;;;;;;6129650;23;20038;-86
2022/07/28 11:15:36;;;;;;;;;;;;;;;;;;;;;
2022/07/28 11:18:11;;;;;;;1.77;0.85;;;;;;;;;;6155774;23;20114;-86
2022/07/28 11:21:03;;;;;;;1.60;0.80;;;;;;;;;;6128896;23;20029;-86
2022/07/28 11:23:55;;;;;;;1.08;0.63;;;;;;;;;;6131538;23;20523;-86
2022/07/28 11:26:45;;;;;;;3.33;0.90;;;;;;;;;;6111854;23;20022;-86
2022/07/28 11:29:13;;;;;;;1.70;0.85;;;;;;;;;;6131035;23;20033;-86
2022/07/28 11:31:41;;;;;;;1.77;0.85;;;;;;;;;;6155596;23;20018;-86
2022/07/28 11:34:22;;;;;;;1.90;0.80;;;;;;;;;;6131369;23;20104;-86
2022/07/28 11:37:06;;;;;;;6.50;1.10;;;;;;;;;;6155345;23;20029;-85
2022/07/28 11:39:47;;;;;;;1.73;0.80;;;;;;;;;;6130751;23;20028;-86
2022/07/28 11:42:28;;;;;;;3.92;1.42;;;;;;;;;;6156247;23;20018;-86
2022/07/28 11:45:17;;;;;;;1.15;0.75;;;;;;;;;;6129413;23;20521;-85
2022/07/28 11:47:50;;;;;;;3.70;0.85;;;;;;;;;;6130397;23;20030;-86
2022/07/28 11:50:21;;;;;;;1.42;0.80;;;;;;;;;;6155569;23;20452;-85
2022/07/28 11:52:58;;;;;;;2.42;0.90;;;;;;;;;;6155954;23;20494;-85
2022/07/28 11:55:35;;;;;;;4.57;0.80;;;;;;;;;;6131317;23;20821;-86
2022/07/28 11:58:25;;;;;;;2.33;0.90;;;;;;;;;;6134353;23;20491;-85
2022/07/28 12:01:13;;;;;;;3.53;1.20;;;;;;;;;;6154239;23;20022;-85
2022/07/28 12:03:45;;;;;;;3.05;1.20;;;;;;;;;;6129753;23;20743;-85
2022/07/28 12:06:27;;;;;;;4.95;0.90;;;;;;;;;;6131454;23;20495;-85
2022/07/28 12:09:02;;;;;;;2.70;1.00;;;;;;;;;;6129689;23;20437;-85
2022/07/28 12:11:39;;;;;;;4.53;1.02;;;;;;;;;;6132047;23;20089;-85
2022/07/28 12:14:13;;;;;;;2.60;0.90;;;;;;;;;;6130025;23;20018;-85
2022/07/28 12:16:42;;;;;;;3.85;0.90;;;;;;;;;;6129171;23;20476;-85
2022/07/28 12:19:20;;;;;;;3.90;0.98;;;;;;;;;;6130491;23;20034;-85
2022/07/28 12:22:00;;;;;;;3.33;0.68;;;;;;;;;;6129477;23;20092;-86
2022/07/28 12:24:30;;;;;;;2.67;0.90;;;;;;;;;;6130265;23;20015;-85
2022/07/28 12:26:59;;;;;;;1.67;0.88;;;;;;;;;;6129688;23;20100;-86
2022/07/28 12:29:30;;;;;;;1.83;0.98;;;;;;;;;;6129056;23;20735;-86
2022/07/28 12:32:05;;;;;;;3.03;0.90;;;;;;;;;;6130173;23;20018;-85
2022/07/28 12:34:33;;;;;;;2.42;1.23;;;;;;;;;;6130468;23;20464;-86
2022/07/28 12:37:08;;;;;;;1.40;0.90;;;;;;;;;;6132173;23;20790;-86
2022/07/28 12:40:14;;;;;;;;;;;;;;;;;;;;;
2022/07/28 12:43:00;;;;;;;3.45;1.00;;;;;;;;;;6064070;23;20404;-86
2022/07/28 12:45:32;;;;;;;2.83;1.08;;;;;;;;;;6041874;23;20030;-86
2022/07/28 12:48:07;;;;;;;3.08;0.93;;;;;;;;;;6066310;23;20066;-84
2022/07/28 12:50:37;;;;;;;4.38;0.98;;;;;;;;;;6065041;23;20019;-86
2022/07/28 12:53:22;;;;;;;1.88;0.90;;;;;;;;;;6041497;23;20055;-85
2022/07/28 12:55:59;;;;;;;1.52;0.93;;;;;;;;;;6041276;23;20187;-86
2022/07/28 12:59:00;;;;;;;;;;;;;;;;;;;;;
2022/07/28 13:01:55;;;;;;;0.65;0.65;;;;;;;;;;6066576;23;20054;-86
2022/07/28 13:04:36;;;;;;;3.88;1.25;;;;;;;;;;6067402;23;20095;-86
2022/07/28 13:07:10;;;;;;;2.83;0.93;;;;;;;;;;6044281;23;20115;-85
2022/07/28 13:09:46;;;;;;;1.40;0.77;;;;;;;;;;6067389;23;20035;-85
2022/07/28 13:12:29;;;;;;;4.60;1.25;;;;;;;;;;6046019;23;20590;-85
2022/07/28 13:14:58;;;;;;;2.10;1.00;;;;;;;;;;6124576;23;20021;-86
2022/07/28 13:17:30;;;;;;;7.47;1.10;;;;;;;;;;6127400;23;20022;-86
2022/07/28 13:20:06;;;;;;;2.50;0.90;;;;;;;;;;6103168;23;20046;-85
2022/07/28 13:22:37;;;;;;;5.30;1.33;;;;;;;;;;6101290;23;20031;-86
2022/07/28 13:25:06;;;;;;;6.72;1.20;;;;;;;;;;6096656;23;20098;-86
2022/07/28 13:27:34;;;;;;;1.95;1.00;;;;;;;;;;6101594;23;20046;-85
2022/07/28 13:30:19;;;;;;;1.55;0.93;;;;;;;;;;6101059;23;20100;-86
2022/07/28 13:32:49;;;;;;;4.47;1.00;;;;;;;;;;6100710;23;20046;-86
2022/07/28 13:35:48;;;;;;;2.05;0.90;;;;;;;;;;6104396;23;20054;-87
2022/07/28 13:38:29;;;;;;;3.53;1.10;;;;;;;;;;6097188;23;20053;-86
2022/07/28 13:41:00;;;;;;;4.78;1.00;;;;;;;;;;6128190;23;20026;-86
2022/07/28 13:43:31;;;;;;;1.77;0.90;;;;;;;;;;6102303;23;20097;-86
2022/07/28 13:46:04;;;;;;;2.85;1.05;;;;;;;;;;6103895;23;20823;-87
2022/07/28 13:48:34;;;;;;;3.45;0.80;;;;;;;;;;6103088;23;20456;-86
2022/07/28 13:51:22;;;;;;;1.95;1.00;;;;;;;;;;6105815;23;20776;-86
2022/07/28 13:54:00;;;;;;;9.65;1.08;;;;;;;;;;6128747;23;20764;-86
2022/07/28 13:56:35;;;;;;;7.13;0.95;;;;;;;;;;6128375;23;20049;-86
2022/07/28 13:59:18;;;;;;;5.80;1.00;;;;;;;;;;6128325;23;20042;-87
2022/07/28 14:01:54;;;;;;;3.13;1.00;;;;;;;;;;6103342;23;20027;-86
2022/07/28 14:04:27;;;;;;;2.80;1.10;;;;;;;;;;6128358;23;20022;-86
2022/07/28 14:06:54;;;;;;;1.42;0.80;;;;;;;;;;6102472;23;20030;-86
2022/07/28 14:09:23;;;;;;;2.10;0.90;;;;;;;;;;6125879;23;20021;-86
2022/07/28 14:11:50;;;;;;;2.67;1.25;;;;;;;;;;6132423;23;20097;-86
2022/07/28 14:14:21;;;;;;;2.53;0.80;;;;;;;;;;6132418;23;20022;-86
2022/07/28 14:16:51;;;;;;;3.72;1.10;;;;;;;;;;6132053;23;20022;-86
2022/07/28 14:19:27;;;;;;;6.90;0.93;;;;;;;;;;6131979;23;20029;-87
2022/07/28 14:22:09;;;;;;;2.65;0.90;;;;;;;;;;6133915;23;20026;-86
2022/07/28 14:25:07;;;;;;;2.17;0.90;;;;;;;;;;6134800;23;20026;-87
2022/07/28 14:27:50;;;;;;;2.72;0.85;;;;;;;;;;6134944;23;20101;-88
2022/07/28 14:30:29;;;;;;;;;;;;;;;;;;;;;
2022/07/28 14:33:20;;;;;;;3.30;0.93;;;;;;;;;;6152154;23;20041;-87
2022/07/28 14:36:03;;;;;;;2.72;1.08;;;;;;;;;;6134621;23;20026;-87
2022/07/28 14:38:35;;;;;;;2.10;0.90;;;;;;;;;;6132369;23;20026;-87
2022/07/28 14:41:32;;;;;;;;;;;;;;;;;;;;;
2022/07/28 14:44:07;;;;;;;2.92;0.90;;;;;;;;;;6157064;23;20101;-87
2022/07/28 14:46:53;;;;;;;3.42;0.80;;;;;;;;;;6135067;23;20483;-87
2022/07/28 14:49:28;;;;;;;1.95;1.10;;;;;;;;;;6131866;23;20684;-87
2022/07/28 14:52:10;;;;;;;1.55;0.88;;;;;;;;;;6132626;23;20182;-87
2022/07/28 14:54:46;;;;;;;3.17;0.82;;;;;;;;;;6132040;23;20018;-86
2022/07/28 14:57:21;;;;;;;3.75;1.00;;;;;;;;;;6132948;23;20100;-87
2022/07/28 15:00:33;;;;;;;5.28;1.23;;;;;;;;;;6137583;23;20498;-87
2022/07/28 15:07:19;;;;;;;1.70;0.80;;;;;;;;;;6137838;23;20230;-87
2022/07/28 15:10:01;;;;;;;6.03;1.00;;;;;;;;;;6136111;23;20448;-87
2022/07/28 15:13:06;;;;;;;2.05;0.82;;;;;;;;;;6134632;23;20018;-87
2022/07/28 15:16:00;;;;;;;1.90;0.90;;;;;;;;;;6145025;23;20022;-87
2022/07/28 15:18:58;;;;;;;2.33;1.10;;;;;;;;;;6135553;23;20490;-87
2022/07/28 15:21:46;;;;;;;2.53;1.00;;;;;;;;;;6129379;23;20036;-87
2022/07/28 15:24:31;;;;;;;;;;;;;;;;;;;;;
2022/07/28 15:27:00;;;;;;;4.25;1.00;;;;;;;;;;6163262;23;20049;-87
2022/07/28 15:29:58;;;;;;;1.13;0.85;;;;;;;;;;6130573;23;20040;-85
2022/07/28 15:32:41;;;;;;;6.45;0.80;;;;;;;;;;6133720;23;20022;-86
2022/07/28 15:35:32;;;;;;;4.05;1.10;;;;;;;;;;6156721;23;20049;-87
2022/07/28 15:38:19;;;;;;;3.78;1.20;;;;;;;;;;6131206;23;20053;-87
2022/07/28 15:40:50;;;;;;;2.95;1.05;;;;;;;;;;6132881;23;20018;-86
2022/07/28 15:43:23;;;;;;;;;;;;;;;;;;6127406;23;20069;-86
2022/07/28 15:46:08;;;;;;;2.85;1.20;;;;;;;;;;6117701;23;19944;-86
2022/07/28 15:48:43;;;;;;;2.88;1.20;;;;;;;;;;6129393;23;20026;-86